TFM - Tactical Decision Aid
ID: Runway Winds: CIG/VIS Threshold:

KPDX - Portland Intl Arpt, OR, US

Updated at: 2157 UTC 23 Apr 2019
Latest TAF at: 2101 UTC 23 Apr 2019

TAF Board

Time2053Z 23/22Z 23/23Z 24/00Z 24/01Z 24/02Z 24/03Z 24/04Z 24/05Z 24/06Z 24/07Z 24/08Z 24/09Z 24/10Z>>
Type OBS PRVL PRVL PRVL PRVL PRVL PRVL PRVL PRVL PRVL PRVL PRVL PRVL PRVL
VIS 10 >6 >6 >6 >6 >6 >6 >6 >6 >6 >6 >6 >6 >6
CIG 250 35 35 35 35 35 -- -- -- -- -- -- -- --
Cover BKN BKN BKN BKN BKN BKN SCT SCT SCT SCT SCT SCT SCT SCT
FltCat VFR VFR VFR VFR VFR VFR VFR VFR VFR VFR VFR VFR VFR VFR
WX -- -- -- -- -- -- -- -- -- -- -- -- -- --
WDir 60 20 20 20 20 20 320 320 320 320 320 320 320 320
WSpd 6 6 6 6 6 6 6 6 6 6 6 6 6 6
WGst -- -- -- -- -- -- -- -- -- -- -- -- -- --

TDA Impact Legend

  None Marginal Slight Moderate High
Visibility (sm) >5 3≤X≤5 2≤X<3 0.5≤X<2 <0.5
Ceiling (100 ft) >30 10≤X≤30 9≤X<10 2≤X<9 <2
Wind Speed (kt) <15 15≤X<25 25≤X<30 ≥30
Wind Gust (kt) <15 15≤X<25 25≤X<35 ≥35
Weather No Wx Reported VCTS -TS,-FZRA TS,FZRA +TS,+FZRA
TAF
KPDX 232101Z 2321/2418 02006KT P6SM SCT025 BKN035
  FM240300 32006KT P6SM SCT040
  FM241200 32004KT P6SM SCT008 BKN015


METAR
KPDX 232053Z 06006KT 10SM FEW030 SCT045 BKN250 19/11 A3019 RMK AO2 SLP224 T01890106 58007
KPDX 231953Z 01004KT 10SM FEW022 SCT033 BKN045 17/10 A3021 RMK AO2 SLP228 T01720100
KPDX 231853Z 02003KT 10SM FEW018 BKN030 BKN045 17/11 A3022 RMK AO2 SLP231 T01720106

Radar Display
Forecast Discussion